createdAt,value
2023-05-14T00:01:15.177Z,4.70
2023-05-14T00:03:41.728Z,5.37
2023-05-14T00:06:09.483Z,4.80
2023-05-14T00:08:35.998Z,4.63
2023-05-14T00:11:02.628Z,5.00
2023-05-14T00:13:29.246Z,5.33
2023-05-14T00:15:55.751Z,4.97
2023-05-14T00:18:22.222Z,5.30
2023-05-14T00:20:49.299Z,6.30
2023-05-14T00:23:15.777Z,5.50
2023-05-14T00:25:42.240Z,5.63
2023-05-14T00:28:08.737Z,5.07
2023-05-14T00:30:35.287Z,5.53
2023-05-14T00:33:01.867Z,5.70
2023-05-14T00:35:28.428Z,5.80
2023-05-14T00:37:55.082Z,5.60
2023-05-14T00:40:26.352Z,5.63
2023-05-14T00:42:53.310Z,5.37
2023-05-14T00:45:19.891Z,5.37
2023-05-14T00:47:46.520Z,5.70
2023-05-14T00:50:13.787Z,5.70
2023-05-14T00:52:40.670Z,5.73
2023-05-14T00:55:07.889Z,5.10
2023-05-14T00:57:36.024Z,5.87
2023-05-14T01:00:03.687Z,5.33
2023-05-14T01:02:30.221Z,5.70
2023-05-14T01:04:57.016Z,5.90
2023-05-14T01:07:54.440Z,5.80
2023-05-14T01:10:39.206Z,5.90
2023-05-14T01:13:12.786Z,6.00
2023-05-14T01:15:40.109Z,5.47
2023-05-14T01:18:09.911Z,5.47
2023-05-14T01:20:36.602Z,5.60
2023-05-14T01:23:03.500Z,6.10
2023-05-14T01:25:31.332Z,6.07
2023-05-14T01:28:02.788Z,5.87
2023-05-14T01:30:36.131Z,5.60
2023-05-14T01:33:12.121Z,6.63
2023-05-14T01:35:39.385Z,6.33
2023-05-14T01:38:08.002Z,6.33
2023-05-14T01:40:36.504Z,6.43
2023-05-14T01:43:04.549Z,6.27
2023-05-14T01:45:31.373Z,6.77
2023-05-14T01:47:58.042Z,7.67
2023-05-14T01:50:24.787Z,9.03
2023-05-14T01:52:53.428Z,9.33
2023-05-14T01:55:20.026Z,8.77
2023-05-14T01:57:46.458Z,8.73
2023-05-14T02:00:13.209Z,9.53
2023-05-14T02:02:39.739Z,9.30
2023-05-14T02:05:07.144Z,10.10
2023-05-14T02:07:33.715Z,9.67
2023-05-14T02:10:00.231Z,10.03
2023-05-14T02:12:26.837Z,10.37
2023-05-14T02:14:53.402Z,9.97
2023-05-14T02:17:19.907Z,11.87
2023-05-14T02:19:46.411Z,11.30
2023-05-14T02:22:13.321Z,10.97
2023-05-14T02:24:39.781Z,10.63
2023-05-14T02:27:06.353Z,11.37
2023-05-14T02:29:32.836Z,11.07
2023-05-14T02:31:59.321Z,10.60
2023-05-14T02:34:25.932Z,11.23
2023-05-14T02:36:52.445Z,11.70
2023-05-14T02:39:18.886Z,10.60
2023-05-14T02:41:45.425Z,11.13
2023-05-14T02:44:11.874Z,12.70
2023-05-14T02:46:38.409Z,12.33
2023-05-14T02:49:05.029Z,12.93
2023-05-14T02:51:31.575Z,12.67
2023-05-14T02:53:58.041Z,12.03
2023-05-14T02:56:24.742Z,11.33
2023-05-14T02:58:51.310Z,11.97
2023-05-14T03:01:18.841Z,13.90
2023-05-14T03:03:45.940Z,11.73
2023-05-14T03:06:12.730Z,12.43
2023-05-14T03:08:39.391Z,12.87
2023-05-14T03:11:06.884Z,12.27
2023-05-14T03:13:33.483Z,12.00
2023-05-14T03:16:00.006Z,12.47
2023-05-14T03:18:28.336Z,13.40
2023-05-14T03:20:54.966Z,13.17
2023-05-14T03:23:21.578Z,12.33
2023-05-14T03:25:48.139Z,11.90
2023-05-14T03:28:14.678Z,12.63
2023-05-14T03:30:41.329Z,13.50
2023-05-14T03:33:07.889Z,12.77
2023-05-14T03:35:34.456Z,12.30
2023-05-14T03:38:00.976Z,12.73
2023-05-14T03:40:27.485Z,12.70
2023-05-14T03:42:54.051Z,12.67
2023-05-14T03:45:20.898Z,11.80
2023-05-14T03:47:47.546Z,12.53
2023-05-14T03:50:14.152Z,12.20
2023-05-14T03:52:40.891Z,12.37
2023-05-14T03:55:07.643Z,11.90
2023-05-14T03:57:34.252Z,13.47
2023-05-14T04:00:00.790Z,11.47
2023-05-14T04:02:27.340Z,12.40
2023-05-14T04:04:53.887Z,13.30
2023-05-14T04:07:20.555Z,12.30
2023-05-14T04:09:47.022Z,12.20
2023-05-14T04:12:13.558Z,12.43
2023-05-14T04:14:40.196Z,13.13
2023-05-14T04:17:06.653Z,12.90
2023-05-14T04:19:33.179Z,13.20
2023-05-14T04:21:59.650Z,13.00
2023-05-14T04:24:26.141Z,13.17
2023-05-14T04:26:52.650Z,12.40
2023-05-14T04:29:19.155Z,13.00
2023-05-14T04:31:46.328Z,12.17
2023-05-14T04:34:12.914Z,12.67
2023-05-14T04:36:40.109Z,12.93
2023-05-14T04:39:06.668Z,12.07
2023-05-14T04:41:33.399Z,11.70
2023-05-14T04:44:01.950Z,13.70
2023-05-14T04:46:28.647Z,12.83
2023-05-14T04:48:56.418Z,11.97
2023-05-14T04:51:23.269Z,12.67
2023-05-14T04:53:49.765Z,12.10
2023-05-14T04:56:16.194Z,12.13
2023-05-14T04:58:42.677Z,11.77
2023-05-14T05:01:09.262Z,12.60
2023-05-14T05:03:35.827Z,12.53
2023-05-14T05:06:02.301Z,12.23
2023-05-14T05:08:29.267Z,12.73
2023-05-14T05:10:55.763Z,12.80
2023-05-14T05:13:22.224Z,11.93
2023-05-14T05:15:48.744Z,11.70
2023-05-14T05:18:15.295Z,12.57
2023-05-14T05:20:41.799Z,12.73
2023-05-14T05:23:08.351Z,11.47
2023-05-14T05:25:34.865Z,12.73
2023-05-14T05:28:01.374Z,11.83
2023-05-14T05:30:28.211Z,12.27
2023-05-14T05:32:57.019Z,11.60
2023-05-14T05:35:23.597Z,12.07
2023-05-14T05:37:50.173Z,11.60
2023-05-14T05:40:16.982Z,11.27
2023-05-14T05:42:43.580Z,11.07
2023-05-14T05:45:10.603Z,12.07
2023-05-14T05:47:37.176Z,11.03
2023-05-14T05:50:03.985Z,10.27
2023-05-14T05:52:30.641Z,10.40
2023-05-14T05:54:57.081Z,10.40
2023-05-14T05:57:25.654Z,11.00
2023-05-14T05:59:53.195Z,10.10
2023-05-14T06:02:19.893Z,10.07
2023-05-14T06:04:46.788Z,10.63
2023-05-14T06:07:13.451Z,9.47
2023-05-14T06:09:39.959Z,8.77
2023-05-14T06:12:06.733Z,9.03
2023-05-14T06:14:33.414Z,9.47
2023-05-14T06:17:00.192Z,9.10
2023-05-14T06:19:26.808Z,8.67
2023-05-14T06:21:53.468Z,9.68
2023-05-14T06:24:20.347Z,7.88
2023-05-14T06:26:48.770Z,6.82
2023-05-14T06:29:15.312Z,6.25
2023-05-14T06:31:42.237Z,6.10
2023-05-14T06:34:09.202Z,6.43
2023-05-14T06:36:35.861Z,5.60
2023-05-14T06:39:03.424Z,5.95
2023-05-14T06:41:29.882Z,5.60
2023-05-14T06:43:56.499Z,5.60
2023-05-14T06:46:23.238Z,5.18
2023-05-14T06:48:49.747Z,5.70
2023-05-14T06:51:16.291Z,5.45
2023-05-14T06:53:42.795Z,5.65
2023-05-14T06:56:09.315Z,5.05
2023-05-14T06:58:35.956Z,5.50
2023-05-14T07:01:02.541Z,5.55
2023-05-14T07:03:29.255Z,4.83
2023-05-14T07:05:55.881Z,4.93
2023-05-14T07:08:22.356Z,4.60
2023-05-14T07:10:49.100Z,4.80
2023-05-14T07:13:15.694Z,4.53
2023-05-14T07:15:42.214Z,5.07
2023-05-14T07:18:08.765Z,4.17
2023-05-14T07:20:35.421Z,4.80
2023-05-14T07:23:01.868Z,4.10
2023-05-14T07:25:30.637Z,3.75
2023-05-14T07:27:57.313Z,4.18
2023-05-14T07:30:24.254Z,3.80
2023-05-14T07:32:51.327Z,4.18
2023-05-14T07:35:18.023Z,4.20
2023-05-14T07:37:44.638Z,3.80
2023-05-14T07:40:11.313Z,3.70
2023-05-14T07:42:37.889Z,4.00
2023-05-14T07:45:05.463Z,4.40
2023-05-14T07:47:32.318Z,3.70
2023-05-14T07:49:59.033Z,3.83
2023-05-14T07:52:25.609Z,4.03
2023-05-14T07:54:52.510Z,3.93
2023-05-14T07:57:19.793Z,3.53
2023-05-14T07:59:47.550Z,3.57
2023-05-14T08:02:16.081Z,3.50
2023-05-14T08:04:42.908Z,2.90
2023-05-14T08:07:09.390Z,3.33
2023-05-14T08:09:35.923Z,3.30
2023-05-14T08:12:02.700Z,2.80
2023-05-14T08:14:29.244Z,2.77
2023-05-14T08:16:55.869Z,2.80
2023-05-14T08:19:23.093Z,2.87
2023-05-14T08:21:49.606Z,2.90
2023-05-14T08:24:16.126Z,3.40
2023-05-14T08:26:43.867Z,2.90
2023-05-14T08:29:11.530Z,3.00
2023-05-14T08:31:38.899Z,3.50
2023-05-14T08:34:05.614Z,3.40
2023-05-14T08:36:32.816Z,3.37
2023-05-14T08:38:59.356Z,4.23
2023-05-14T08:41:25.986Z,3.40
2023-05-14T08:44:05.528Z,3.40
2023-05-14T08:46:32.580Z,3.37
2023-05-14T08:49:22.970Z,3.43
2023-05-14T08:51:49.776Z,3.50
2023-05-14T08:54:22.518Z,3.17
2023-05-14T08:56:51.953Z,3.20
2023-05-14T08:59:19.204Z,2.80
2023-05-14T09:01:49.628Z,2.60
2023-05-14T09:04:20.060Z,2.87
2023-05-14T09:06:49.339Z,2.60
2023-05-14T09:09:16.349Z,2.60
2023-05-14T09:11:46.750Z,2.50
2023-05-14T09:14:13.276Z,2.47
2023-05-14T09:16:41.780Z,2.70
2023-05-14T09:19:08.898Z,3.10
2023-05-14T09:21:35.853Z,2.30
2023-05-14T09:24:02.542Z,2.40
2023-05-14T09:26:31.872Z,2.40
2023-05-14T09:29:05.048Z,2.50
2023-05-14T09:31:32.810Z,2.43
2023-05-14T09:33:59.888Z,2.60
2023-05-14T09:36:27.246Z,2.23
2023-05-14T09:38:56.937Z,2.53
2023-05-14T09:41:24.381Z,2.40
2023-05-14T09:43:51.642Z,2.23
2023-05-14T09:46:18.327Z,2.03
2023-05-14T09:48:46.062Z,2.00
2023-05-14T09:51:13.429Z,2.23
2023-05-14T09:53:41.318Z,2.37
2023-05-14T09:56:07.853Z,2.40
2023-05-14T09:58:34.316Z,2.50
2023-05-14T10:01:01.801Z,2.27
2023-05-14T10:03:30.203Z,2.47
2023-05-14T10:06:01.234Z,2.00
2023-05-14T10:08:31.084Z,2.23
2023-05-14T10:10:59.128Z,2.20
2023-05-14T10:13:33.735Z,2.20
2023-05-14T10:16:00.210Z,2.47
2023-05-14T10:18:31.184Z,2.10
2023-05-14T10:21:04.116Z,2.57
2023-05-14T10:23:30.959Z,2.57
2023-05-14T10:26:00.605Z,2.20
2023-05-14T10:28:27.808Z,2.93
2023-05-14T10:30:54.818Z,2.63
2023-05-14T10:33:21.476Z,2.37
2023-05-14T10:36:07.649Z,2.90
2023-05-14T10:38:35.832Z,2.17
2023-05-14T10:41:07.444Z,2.23
2023-05-14T10:43:38.460Z,2.77
2023-05-14T10:46:05.754Z,2.20
2023-05-14T10:48:33.027Z,2.30
2023-05-14T10:51:01.037Z,2.20
2023-05-14T10:53:37.850Z,2.30
2023-05-14T10:56:08.918Z,2.20
2023-05-14T10:58:39.981Z,2.33
2023-05-14T11:01:08.238Z,3.20
2023-05-14T11:03:46.172Z,2.07
2023-05-14T11:06:14.399Z,2.40
2023-05-14T11:08:41.490Z,2.20
2023-05-14T11:11:09.340Z,2.43
2023-05-14T11:13:35.974Z,2.33
2023-05-14T11:16:15.031Z,2.43
2023-05-14T11:18:53.606Z,2.20
2023-05-14T11:21:20.445Z,2.17
2023-05-14T11:23:47.017Z,2.50
2023-05-14T11:26:13.705Z,2.50
2023-05-14T11:28:40.590Z,2.17
2023-05-14T11:31:07.228Z,2.10
2023-05-14T11:33:33.937Z,1.90
2023-05-14T11:36:00.610Z,1.97
2023-05-14T11:38:27.103Z,2.00
2023-05-14T11:40:57.460Z,2.33
2023-05-14T11:43:24.815Z,2.30
2023-05-14T11:45:52.647Z,2.00
2023-05-14T11:48:24.001Z,2.17
2023-05-14T11:50:51.946Z,2.20
2023-05-14T11:53:29.194Z,2.17
2023-05-14T11:55:57.792Z,2.00
2023-05-14T11:58:24.685Z,2.17
2023-05-14T12:00:52.747Z,2.30
2023-05-14T12:03:26.777Z,2.77
2023-05-14T12:05:57.543Z,2.10
2023-05-14T12:08:28.849Z,2.47
2023-05-14T12:10:55.919Z,2.20
2023-05-14T12:13:26.714Z,2.00
2023-05-14T12:15:57.608Z,2.00
2023-05-14T12:18:29.284Z,2.30
2023-05-14T12:20:56.613Z,1.67
2023-05-14T12:23:32.608Z,2.13
2023-05-14T12:26:17.315Z,1.90
2023-05-14T12:28:47.805Z,2.10
2023-05-14T12:31:15.668Z,1.90
2023-05-14T12:33:42.300Z,1.90
2023-05-14T12:38:40.871Z,2.00
2023-05-14T12:41:07.414Z,2.10
2023-05-14T12:43:33.902Z,1.90
2023-05-14T12:46:00.515Z,2.23
2023-05-14T12:48:27.043Z,1.87
2023-05-14T12:50:53.624Z,2.20
2023-05-14T12:53:20.179Z,1.70
2023-05-14T12:55:46.699Z,2.20
2023-05-14T12:58:13.256Z,1.93
2023-05-14T13:00:39.809Z,2.20
2023-05-14T13:03:06.517Z,1.70
2023-05-14T13:05:33.345Z,1.90
2023-05-14T13:08:02.213Z,2.10
2023-05-14T13:10:28.752Z,2.00
2023-05-14T13:12:56.417Z,2.03
2023-05-14T13:15:23.712Z,2.10
2023-05-14T13:17:51.171Z,2.00
2023-05-14T13:20:18.418Z,1.93
2023-05-14T13:22:45.298Z,2.43
2023-05-14T13:25:11.753Z,2.43
2023-05-14T13:27:38.313Z,1.93
2023-05-14T13:30:05.293Z,2.33
2023-05-14T13:32:31.806Z,1.97
2023-05-14T13:34:58.463Z,2.30
2023-05-14T13:37:25.710Z,2.20
2023-05-14T13:39:52.269Z,1.90
2023-05-14T13:42:18.874Z,1.60
2023-05-14T13:44:45.538Z,1.93
2023-05-14T13:47:12.083Z,1.80
2023-05-14T13:49:38.736Z,1.80
2023-05-14T13:52:06.013Z,2.10
2023-05-14T13:54:32.647Z,1.80
2023-05-14T13:56:59.314Z,1.93
2023-05-14T13:59:26.075Z,1.97
2023-05-14T14:01:52.751Z,1.70
2023-05-14T14:04:19.953Z,2.00
2023-05-14T14:06:46.556Z,1.70
2023-05-14T14:09:13.815Z,2.13
2023-05-14T14:11:41.056Z,2.03
2023-05-14T14:14:07.654Z,2.10
2023-05-14T14:16:34.474Z,1.97
2023-05-14T14:19:01.058Z,2.30
2023-05-14T14:21:27.628Z,1.73
2023-05-14T14:23:54.306Z,2.10
2023-05-14T14:26:21.311Z,1.70
2023-05-14T14:28:47.942Z,2.60
2023-05-14T14:31:14.697Z,1.90
2023-05-14T14:33:41.839Z,1.77
2023-05-14T14:36:08.769Z,2.00
2023-05-14T14:38:35.356Z,1.97
2023-05-14T14:41:07.059Z,1.97
2023-05-14T14:43:41.137Z,1.93
2023-05-14T14:46:10.749Z,2.00
2023-05-14T14:48:37.752Z,2.37
2023-05-14T14:51:06.004Z,2.00
2023-05-14T14:53:33.082Z,2.00
2023-05-14T14:56:00.640Z,1.93
2023-05-14T14:58:28.025Z,1.97
2023-05-14T15:00:55.968Z,2.27
2023-05-14T15:03:23.640Z,2.20
2023-05-14T15:05:51.691Z,2.10
2023-05-14T15:08:18.418Z,2.10
2023-05-14T15:10:45.746Z,1.83
2023-05-14T15:13:12.774Z,1.90
2023-05-14T15:15:39.458Z,2.30
2023-05-14T15:18:06.090Z,1.80
2023-05-14T15:20:32.660Z,2.00
2023-05-14T15:22:59.194Z,1.97
2023-05-14T15:25:26.690Z,2.17
2023-05-14T15:27:53.365Z,1.80
2023-05-14T15:30:19.966Z,2.03
2023-05-14T15:32:46.821Z,1.83
2023-05-14T15:35:13.399Z,2.00
2023-05-14T15:37:42.247Z,2.07
2023-05-14T15:40:10.292Z,1.93
2023-05-14T15:42:42.408Z,1.93
2023-05-14T15:45:12.613Z,1.67
2023-05-14T15:47:40.041Z,2.40
2023-05-14T15:50:07.540Z,2.20
2023-05-14T15:52:35.013Z,2.30
2023-05-14T15:55:01.874Z,2.13
2023-05-14T15:57:28.339Z,2.63
2023-05-14T15:59:54.824Z,19.03
2023-05-14T16:02:21.320Z,32.63
2023-05-14T16:04:49.534Z,27.00
2023-05-14T16:07:16.284Z,17.97
2023-05-14T16:09:42.786Z,26.40
2023-05-14T16:12:09.328Z,18.13
2023-05-14T16:14:36.053Z,6.90
2023-05-14T16:17:02.758Z,11.37
2023-05-14T16:19:29.351Z,9.03
2023-05-14T16:21:55.889Z,8.13
2023-05-14T16:24:22.381Z,4.20
2023-05-14T16:26:49.049Z,3.87
2023-05-14T16:29:15.829Z,2.60
2023-05-14T16:31:42.336Z,3.40
2023-05-14T16:34:08.980Z,2.70
2023-05-14T16:36:35.673Z,3.93
2023-05-14T16:41:31.682Z,3.30
2023-05-14T16:43:58.130Z,3.30
2023-05-14T16:46:24.687Z,2.43
2023-05-14T16:48:51.270Z,2.80
2023-05-14T16:51:17.720Z,2.53
2023-05-14T16:53:44.308Z,2.10
2023-05-14T16:56:11.061Z,2.13
2023-05-14T16:58:37.656Z,2.20
2023-05-14T17:01:04.195Z,2.03
2023-05-14T17:03:30.757Z,2.57
2023-05-14T17:05:57.255Z,2.30
2023-05-14T17:08:23.762Z,2.57
2023-05-14T17:10:50.295Z,1.83
2023-05-14T17:13:16.775Z,2.30
2023-05-14T17:15:43.325Z,2.40
2023-05-14T17:18:11.893Z,2.00
2023-05-14T17:20:38.569Z,2.10
2023-05-14T17:23:05.052Z,2.20
2023-05-14T17:25:33.190Z,2.20
2023-05-14T17:28:00.136Z,2.20
2023-05-14T17:30:27.181Z,2.40
2023-05-14T17:32:53.794Z,2.13
2023-05-14T17:35:20.378Z,2.00
2023-05-14T17:37:47.161Z,2.20
2023-05-14T17:40:13.841Z,2.20
2023-05-14T17:42:40.292Z,2.17
2023-05-14T17:45:07.511Z,1.73
2023-05-14T17:47:34.242Z,2.10
2023-05-14T17:50:00.875Z,2.00
2023-05-14T17:52:27.361Z,2.40
2023-05-14T17:54:53.912Z,2.10
2023-05-14T17:57:21.188Z,2.20
2023-05-14T17:59:47.724Z,1.73
2023-05-14T18:02:14.302Z,2.70
2023-05-14T18:04:40.855Z,2.83
2023-05-14T18:07:07.590Z,3.10
2023-05-14T18:09:34.335Z,2.50
2023-05-14T18:12:00.962Z,2.80
2023-05-14T18:14:27.427Z,2.20
2023-05-14T18:16:55.874Z,2.37
2023-05-14T18:19:22.627Z,2.10
2023-05-14T18:21:49.391Z,2.30
2023-05-14T18:24:16.198Z,2.50
2023-05-14T18:26:42.792Z,4.60
2023-05-14T18:29:09.281Z,3.17
2023-05-14T18:31:35.836Z,2.77
2023-05-14T18:34:02.374Z,3.17
2023-05-14T18:36:29.041Z,2.40
2023-05-14T18:38:55.495Z,2.67
2023-05-14T18:41:22.018Z,2.20
2023-05-14T18:43:48.528Z,2.43
2023-05-14T18:46:15.081Z,2.70
2023-05-14T18:48:41.681Z,3.10
2023-05-14T18:51:08.222Z,2.43
2023-05-14T18:53:34.800Z,2.60
2023-05-14T18:56:01.336Z,3.10
2023-05-14T18:58:28.225Z,2.30
2023-05-14T19:00:57.730Z,2.60
2023-05-14T19:03:24.585Z,2.17
2023-05-14T19:05:53.130Z,2.70
2023-05-14T19:08:19.689Z,2.53
2023-05-14T19:10:46.745Z,2.80
2023-05-14T19:13:13.287Z,2.70
2023-05-14T19:15:39.747Z,2.83
2023-05-14T19:18:06.461Z,3.40
2023-05-14T19:20:33.027Z,2.60
2023-05-14T19:22:59.563Z,2.83
2023-05-14T19:25:26.179Z,2.80
2023-05-14T19:27:53.700Z,2.83
2023-05-14T19:30:21.266Z,2.53
2023-05-14T19:32:47.828Z,3.63
2023-05-14T19:35:14.561Z,2.77
2023-05-14T19:37:41.229Z,2.97
2023-05-14T19:40:08.531Z,3.00
2023-05-14T19:42:35.091Z,3.17
2023-05-14T19:45:01.658Z,3.20
2023-05-14T19:47:28.818Z,2.90
2023-05-14T19:49:58.734Z,2.80
2023-05-14T19:52:28.480Z,3.13
2023-05-14T19:54:58.140Z,2.97
2023-05-14T19:57:28.117Z,3.00
2023-05-14T19:59:55.659Z,3.13
2023-05-14T20:02:24.988Z,3.70
2023-05-14T20:04:55.729Z,3.20
2023-05-14T20:07:22.590Z,3.90
2023-05-14T20:09:49.116Z,3.30
2023-05-14T20:12:16.737Z,3.33
2023-05-14T20:14:43.511Z,2.90
2023-05-14T20:17:10.135Z,3.40
2023-05-14T20:19:36.774Z,3.77
2023-05-14T20:22:03.336Z,3.33
2023-05-14T20:24:29.854Z,3.60
2023-05-14T20:26:56.769Z,3.70
2023-05-14T20:29:23.233Z,3.57
2023-05-14T20:31:49.708Z,3.60
2023-05-14T20:34:16.183Z,3.80
2023-05-14T20:36:42.630Z,3.60
2023-05-14T20:39:10.847Z,3.73
2023-05-14T20:41:37.850Z,4.20
2023-05-14T20:44:04.530Z,3.63
2023-05-14T20:46:31.098Z,3.60
2023-05-14T20:48:57.661Z,3.83
2023-05-14T20:51:24.439Z,3.10
2023-05-14T20:53:50.903Z,3.53
2023-05-14T20:56:17.502Z,3.77
2023-05-14T20:58:44.207Z,3.57
2023-05-14T21:01:10.707Z,4.00
2023-05-14T21:03:37.335Z,3.50
2023-05-14T21:06:03.945Z,3.73
2023-05-14T21:08:32.854Z,3.40
2023-05-14T21:10:59.412Z,3.20
2023-05-14T21:13:25.925Z,3.47
2023-05-14T21:15:52.553Z,3.53
2023-05-14T21:18:19.047Z,3.37
2023-05-14T21:20:45.543Z,3.30
2023-05-14T21:23:12.690Z,3.67
2023-05-14T21:25:39.212Z,3.70
2023-05-14T21:28:05.806Z,3.20
2023-05-14T21:30:32.292Z,3.20
2023-05-14T21:32:58.791Z,3.60
2023-05-14T21:35:25.635Z,3.47
2023-05-14T21:37:52.432Z,3.53
2023-05-14T21:40:18.957Z,3.07
2023-05-14T21:42:45.522Z,3.90
2023-05-14T21:45:12.006Z,3.90
2023-05-14T21:47:38.839Z,3.87
2023-05-14T21:50:05.963Z,3.93
2023-05-14T21:52:32.483Z,3.60
2023-05-14T21:54:58.948Z,4.07
2023-05-14T21:57:28.179Z,3.50
2023-05-14T21:59:55.163Z,3.57
2023-05-14T22:02:21.674Z,3.30
2023-05-14T22:04:48.248Z,3.53
2023-05-14T22:07:14.751Z,3.37
2023-05-14T22:09:41.469Z,3.57
2023-05-14T22:12:08.070Z,3.50
2023-05-14T22:14:34.537Z,3.90
2023-05-14T22:17:01.036Z,3.30
2023-05-14T22:19:27.914Z,3.80
2023-05-14T22:21:54.478Z,3.43
2023-05-14T22:24:20.998Z,3.60
2023-05-14T22:26:47.523Z,3.60
2023-05-14T22:29:13.978Z,2.90
2023-05-14T22:31:40.522Z,3.27
2023-05-14T22:34:07.098Z,3.17
2023-05-14T22:36:33.598Z,3.00
2023-05-14T22:39:00.070Z,3.40
2023-05-14T22:41:26.757Z,3.17
2023-05-14T22:43:53.218Z,2.90
2023-05-14T22:46:21.089Z,3.00
2023-05-14T22:48:49.170Z,2.90
2023-05-14T22:51:16.338Z,3.10
2023-05-14T22:53:42.764Z,3.33
2023-05-14T22:56:09.275Z,2.90
2023-05-14T22:58:35.892Z,2.97
2023-05-14T23:01:03.444Z,3.00
2023-05-14T23:03:30.104Z,3.00
2023-05-14T23:05:56.594Z,2.80
2023-05-14T23:08:23.057Z,2.50
2023-05-14T23:10:49.578Z,3.10
2023-05-14T23:13:16.052Z,2.73
2023-05-14T23:15:43.891Z,3.10
2023-05-14T23:18:10.545Z,2.63
2023-05-14T23:20:37.091Z,3.30
2023-05-14T23:23:03.558Z,3.00
2023-05-14T23:25:30.002Z,2.97
2023-05-14T23:27:56.464Z,2.57
2023-05-14T23:30:22.914Z,3.10
2023-05-14T23:32:49.416Z,2.80
2023-05-14T23:35:16.149Z,2.90
2023-05-14T23:37:47.159Z,2.67
2023-05-14T23:40:14.171Z,2.83
2023-05-14T23:42:40.655Z,2.80
2023-05-14T23:45:07.695Z,2.37
2023-05-14T23:47:34.212Z,3.50
2023-05-14T23:50:00.717Z,2.67
2023-05-14T23:52:27.211Z,3.10
2023-05-14T23:54:53.766Z,2.37
2023-05-14T23:57:20.242Z,2.77
2023-05-14T23:59:46.717Z,2.80
